Ambler Airport Ambler US
ICAO: PAFM
IATA:
Category: Medium
Scheduled Services:

Elevation: 334 ft
TransAlt. 18000 ft.

Airport Communications:
AWOS 3:132.1
ANCHORAGE CNTR:119.2
CTAF:122.7
KOTEZBUE RDO:122
TWEB:40.3

PAFM Zoom In..

If Map Doesn't Load, Click Here

Runways:

(A) RW 09 length 2400 ft width 60 ft
---- / hdg 91

(B) RW 18 length 3000 ft width 60 ft
---- / hdg 181

(C) RW 27 length 2400 ft width 60 ft
---- / hdg 271

(D) RW 36 length 3000 ft width 60 ft
---- / hdg 1

Location; PAFM
Day. 26 / Time. 09.56 Zulu
* Altimeter: 30.22
* Temperature: 04° c. 39.2°f.
* Wind from: 000° Speed 00 kn.
Dewpoint: 00° c.
Visibility: 10 Statute Miles.
Clouds: Broken 4700 ft.
Clouds: Overcast 6500 ft.

PAFM 260956Z AUTO 00000KT 10SM BKN047 OVC065 04/00 A3022 RMK AO2 SLP250 T00390000


Wind - Calm.

 
 
jpsmedia.com for Web Design worldairports.se 2018   terms of use